createdAt,value
2022-12-28T00:00:29.077Z,3.70
2022-12-28T00:01:51.250Z,3.70
2022-12-28T00:03:13.355Z,3.70
2022-12-28T00:04:35.497Z,3.70
2022-12-28T00:05:57.736Z,3.70
2022-12-28T00:07:19.876Z,3.60
2022-12-28T00:08:42.052Z,3.60
2022-12-28T00:10:04.558Z,3.60
2022-12-28T00:11:30.709Z,3.60
2022-12-28T00:12:53.343Z,3.50
2022-12-28T00:14:15.403Z,3.50
2022-12-28T00:15:38.071Z,3.50
2022-12-28T00:17:00.117Z,3.40
2022-12-28T00:19:35.709Z,3.40
2022-12-28T00:20:58.956Z,3.40
2022-12-28T00:22:21.166Z,3.40
2022-12-28T00:23:43.255Z,3.40
2022-12-28T00:25:05.883Z,3.40
2022-12-28T00:26:31.236Z,3.30
2022-12-28T00:27:53.288Z,3.40
2022-12-28T00:29:15.964Z,3.30
2022-12-28T00:30:38.013Z,3.40
2022-12-28T00:32:00.151Z,3.40
2022-12-28T00:33:22.452Z,3.40
2022-12-28T00:34:44.515Z,3.40
2022-12-28T00:36:07.374Z,3.40
2022-12-28T00:37:29.488Z,3.40
2022-12-28T00:38:51.612Z,3.40
2022-12-28T00:40:16.423Z,3.40
2022-12-28T00:41:42.514Z,3.50
2022-12-28T00:43:05.868Z,3.50
2022-12-28T00:44:28.413Z,3.50
2022-12-28T00:45:50.714Z,3.50
2022-12-28T00:47:12.794Z,3.60
2022-12-28T00:48:34.855Z,3.60
2022-12-28T00:49:56.876Z,3.70
2022-12-28T00:51:20.992Z,3.70
2022-12-28T00:52:43.032Z,3.80
2022-12-28T00:54:05.209Z,3.80
2022-12-28T00:55:27.261Z,3.80
2022-12-28T00:56:49.323Z,3.80
2022-12-28T00:58:11.412Z,3.90
2022-12-28T00:59:33.503Z,3.90
2022-12-28T01:00:55.753Z,3.90
2022-12-28T01:02:17.956Z,3.90
2022-12-28T01:03:40.085Z,3.90
2022-12-28T01:05:02.144Z,4.00
2022-12-28T01:06:25.490Z,4.00
2022-12-28T01:07:47.717Z,4.00
2022-12-28T01:09:09.780Z,3.90
2022-12-28T01:10:31.832Z,4.00
2022-12-28T01:11:53.890Z,4.00
2022-12-28T01:13:16.005Z,4.00
2022-12-28T01:14:38.142Z,4.00
2022-12-28T01:16:00.215Z,4.00
2022-12-28T01:17:22.345Z,4.00
2022-12-28T01:18:45.519Z,4.00
2022-12-28T01:20:08.981Z,4.00
2022-12-28T01:21:32.872Z,4.00
2022-12-28T01:22:55.573Z,4.00
2022-12-28T01:24:17.928Z,4.00
2022-12-28T01:25:40.009Z,3.90
2022-12-28T01:27:02.175Z,3.90
2022-12-28T01:28:24.234Z,3.90
2022-12-28T01:29:46.283Z,3.90
2022-12-28T01:31:15.100Z,3.90
2022-12-28T01:32:37.149Z,3.90
2022-12-28T01:33:59.355Z,3.90
2022-12-28T01:35:21.477Z,3.90
2022-12-28T01:36:43.550Z,3.90
2022-12-28T01:38:05.607Z,3.90
2022-12-28T01:39:27.990Z,4.00
2022-12-28T01:40:50.019Z,3.90
2022-12-28T01:42:19.552Z,3.90
2022-12-28T01:43:53.925Z,3.90
2022-12-28T01:45:21.935Z,3.90
2022-12-28T01:46:49.880Z,4.00
2022-12-28T01:48:20.778Z,4.00
2022-12-28T01:50:07.094Z,4.00
2022-12-28T01:51:31.711Z,4.00
2022-12-28T01:53:00.585Z,4.00
2022-12-28T01:54:26.987Z,4.10
2022-12-28T01:55:49.413Z,4.10
2022-12-28T01:57:13.525Z,4.10
2022-12-28T01:58:36.219Z,4.10
2022-12-28T02:00:05.440Z,4.10
2022-12-28T02:01:27.979Z,4.10
2022-12-28T02:02:56.445Z,4.20
2022-12-28T02:04:18.639Z,4.20
2022-12-28T02:05:44.405Z,4.20
2022-12-28T02:07:06.602Z,4.20
2022-12-28T02:08:38.345Z,4.20
2022-12-28T02:10:43.142Z,4.30
2022-12-28T02:11:43.971Z,4.30
2022-12-28T02:13:06.251Z,4.30
2022-12-28T02:14:28.662Z,4.30
2022-12-28T02:15:52.008Z,4.30
2022-12-28T02:17:14.470Z,4.30
2022-12-28T02:18:36.800Z,4.40
2022-12-28T02:19:58.888Z,4.40
2022-12-28T02:21:51.865Z,4.40
2022-12-28T02:23:35.989Z,4.40
2022-12-28T02:25:32.713Z,4.40
2022-12-28T02:27:20.689Z,4.40
2022-12-28T02:29:06.607Z,4.40
2022-12-28T02:30:34.642Z,4.40
2022-12-28T02:32:18.533Z,4.30
2022-12-28T02:33:49.541Z,4.30
2022-12-28T02:36:00.767Z,4.40
2022-12-28T02:37:32.929Z,4.40
2022-12-28T02:39:03.806Z,4.40
2022-12-28T02:40:35.056Z,4.40
2022-12-28T02:41:58.487Z,4.40
2022-12-28T02:43:20.686Z,4.40
2022-12-28T02:45:01.355Z,4.40
2022-12-28T02:46:46.658Z,4.40
2022-12-28T02:48:27.317Z,4.40
2022-12-28T02:50:07.929Z,4.40
2022-12-28T02:51:50.608Z,4.40
2022-12-28T02:53:26.014Z,4.40
2022-12-28T02:55:21.680Z,4.50
2022-12-28T02:56:55.580Z,4.50
2022-12-28T02:58:53.283Z,4.50
2022-12-28T03:00:24.693Z,4.50
2022-12-28T03:02:27.723Z,4.50
2022-12-28T03:04:03.391Z,4.50
2022-12-28T03:06:02.880Z,4.50
2022-12-28T03:07:54.685Z,4.60
2022-12-28T03:09:26.020Z,4.60
2022-12-28T03:11:16.067Z,4.60
2022-12-28T03:13:05.084Z,4.60
2022-12-28T03:14:35.158Z,4.60
2022-12-28T03:16:02.309Z,4.60
2022-12-28T03:17:47.571Z,4.60
2022-12-28T03:19:29.545Z,4.60
2022-12-28T03:21:12.891Z,4.60
2022-12-28T03:22:55.320Z,4.60
2022-12-28T03:24:37.916Z,4.60
2022-12-28T03:26:21.639Z,4.60
2022-12-28T03:28:03.393Z,4.60
2022-12-28T03:29:46.989Z,4.70
2022-12-28T03:31:14.711Z,4.70
2022-12-28T03:32:36.917Z,4.70
2022-12-28T03:34:09.558Z,4.70
2022-12-28T03:35:45.792Z,4.70
2022-12-28T03:37:18.014Z,4.70
2022-12-28T03:38:53.858Z,4.70
2022-12-28T03:40:48.104Z,4.80
2022-12-28T03:42:33.512Z,4.80
2022-12-28T03:44:01.574Z,4.80
2022-12-28T03:45:46.183Z,4.80
2022-12-28T03:47:12.796Z,4.80
2022-12-28T03:48:37.502Z,4.80
2022-12-28T03:50:00.194Z,4.80
2022-12-28T03:51:23.764Z,4.80
2022-12-28T03:52:45.822Z,4.80
2022-12-28T03:54:07.892Z,4.80
2022-12-28T03:55:30.219Z,4.80
2022-12-28T03:56:52.412Z,4.80
2022-12-28T03:58:14.490Z,4.90
2022-12-28T03:59:36.538Z,4.90
2022-12-28T04:00:58.658Z,4.90
2022-12-28T04:02:20.841Z,4.90
2022-12-28T04:03:43.239Z,4.90
2022-12-28T04:05:05.832Z,4.90
2022-12-28T04:06:27.863Z,4.90
2022-12-28T04:07:50.411Z,4.90
2022-12-28T04:09:12.612Z,4.90
2022-12-28T04:10:34.735Z,4.90
2022-12-28T04:11:56.789Z,4.90
2022-12-28T04:13:18.894Z,4.90
2022-12-28T04:14:41.029Z,4.90
2022-12-28T04:16:08.287Z,4.90
2022-12-28T04:17:30.379Z,4.90
2022-12-28T04:18:52.430Z,5.00
2022-12-28T04:20:14.554Z,5.00
2022-12-28T04:21:36.669Z,5.00
2022-12-28T04:22:58.752Z,5.00
2022-12-28T04:24:20.843Z,5.00
2022-12-28T04:25:42.924Z,5.00
2022-12-28T04:27:04.997Z,5.00
2022-12-28T04:28:27.789Z,5.00
2022-12-28T04:29:50.267Z,5.00
2022-12-28T04:31:14.285Z,5.10
2022-12-28T04:32:36.486Z,5.10
2022-12-28T04:33:59.313Z,5.10
2022-12-28T04:35:21.389Z,5.10
2022-12-28T04:36:43.435Z,5.10
2022-12-28T04:38:06.051Z,5.10
2022-12-28T04:39:28.164Z,5.10
2022-12-28T04:41:11.326Z,5.10
2022-12-28T04:42:33.391Z,5.10
2022-12-28T04:43:55.836Z,5.10
2022-12-28T04:45:22.002Z,5.10
2022-12-28T04:46:44.584Z,5.10
2022-12-28T04:48:06.747Z,5.10
2022-12-28T04:49:28.849Z,5.20
2022-12-28T04:50:50.952Z,5.20
2022-12-28T04:52:13.219Z,5.20
2022-12-28T04:53:39.174Z,5.20
2022-12-28T04:55:01.331Z,5.20
2022-12-28T04:56:25.678Z,5.20
2022-12-28T04:57:47.751Z,5.20
2022-12-28T04:59:09.798Z,5.20
2022-12-28T05:00:31.912Z,5.20
2022-12-28T05:01:54.047Z,5.20
2022-12-28T05:03:16.150Z,5.20
2022-12-28T05:04:38.773Z,5.20
2022-12-28T05:06:07.402Z,5.20
2022-12-28T05:07:29.861Z,5.20
2022-12-28T05:08:52.102Z,5.20
2022-12-28T05:10:14.179Z,5.20
2022-12-28T05:11:36.295Z,5.20
2022-12-28T05:12:58.337Z,5.30
2022-12-28T05:14:20.401Z,5.30
2022-12-28T05:15:42.412Z,5.30
2022-12-28T05:17:05.218Z,5.30
2022-12-28T05:18:27.417Z,5.30
2022-12-28T05:19:49.464Z,5.30
2022-12-28T05:21:22.205Z,5.30
2022-12-28T05:22:44.242Z,5.30
2022-12-28T05:24:06.748Z,5.30
2022-12-28T05:25:28.787Z,5.30
2022-12-28T05:26:50.844Z,5.30
2022-12-28T05:28:12.877Z,5.30
2022-12-28T05:29:34.947Z,5.30
2022-12-28T05:31:05.478Z,5.30
2022-12-28T05:32:27.510Z,5.40
2022-12-28T05:33:50.168Z,5.30
2022-12-28T05:35:12.199Z,5.40
2022-12-28T05:36:37.819Z,5.40
2022-12-28T05:37:59.910Z,5.40
2022-12-28T05:39:22.013Z,5.40
2022-12-28T05:40:44.055Z,5.40
2022-12-28T05:42:06.149Z,5.40
2022-12-28T05:43:28.164Z,5.40
2022-12-28T05:44:50.233Z,5.40
2022-12-28T05:46:19.375Z,5.40
2022-12-28T05:47:41.591Z,5.40
2022-12-28T05:49:03.738Z,5.40
2022-12-28T05:50:25.826Z,5.40
2022-12-28T05:51:53.201Z,5.40
2022-12-28T05:53:15.400Z,5.40
2022-12-28T05:54:37.451Z,5.40
2022-12-28T05:56:12.176Z,5.40
2022-12-28T05:57:36.209Z,5.40
2022-12-28T05:59:02.267Z,5.40
2022-12-28T06:00:24.333Z,5.40
2022-12-28T06:01:46.551Z,5.40
2022-12-28T06:03:08.907Z,5.40
2022-12-28T06:04:31.112Z,5.40
2022-12-28T06:05:53.161Z,5.40
2022-12-28T06:07:15.219Z,5.40
2022-12-28T06:08:38.254Z,5.40
2022-12-28T06:10:00.297Z,5.30
2022-12-28T06:11:24.927Z,5.40
2022-12-28T06:12:47.036Z,5.40
2022-12-28T06:14:09.309Z,5.40
2022-12-28T06:15:31.401Z,5.30
2022-12-28T06:16:53.511Z,5.30
2022-12-28T06:18:15.609Z,5.30
2022-12-28T06:19:37.694Z,5.30
2022-12-28T06:21:07.637Z,5.30
2022-12-28T06:22:29.851Z,5.30
2022-12-28T06:23:51.954Z,5.30
2022-12-28T06:25:14.091Z,5.30
2022-12-28T06:26:38.502Z,5.30
2022-12-28T06:28:00.539Z,5.30
2022-12-28T06:29:22.572Z,5.30
2022-12-28T06:30:50.505Z,5.20
2022-12-28T06:32:14.486Z,5.20
2022-12-28T06:33:36.603Z,5.20
2022-12-28T06:34:58.655Z,5.30
2022-12-28T06:36:23.980Z,5.20
2022-12-28T06:37:47.895Z,5.20
2022-12-28T06:39:12.225Z,5.20
2022-12-28T06:41:02.871Z,5.20
2022-12-28T06:42:16.485Z,5.20
2022-12-28T06:43:40.184Z,5.20
2022-12-28T06:45:02.301Z,5.20
2022-12-28T06:46:27.375Z,5.20
2022-12-28T06:47:49.403Z,5.20
2022-12-28T06:49:11.429Z,5.20
2022-12-28T06:50:39.802Z,5.20
2022-12-28T06:52:02.210Z,5.20
2022-12-28T06:53:25.423Z,5.10
2022-12-28T06:54:47.523Z,5.10
2022-12-28T06:56:33.602Z,5.10
2022-12-28T06:57:55.610Z,5.10
2022-12-28T06:59:17.611Z,5.10
2022-12-28T07:00:39.648Z,5.10
2022-12-28T07:02:01.959Z,5.10
2022-12-28T07:03:24.979Z,5.10
2022-12-28T07:04:47.037Z,5.00
2022-12-28T07:06:09.848Z,5.10
2022-12-28T07:07:31.913Z,5.10
2022-12-28T07:09:05.865Z,5.10
2022-12-28T07:10:27.942Z,5.10
2022-12-28T07:11:50.515Z,5.10
2022-12-28T07:13:12.598Z,5.10
2022-12-28T07:14:34.628Z,5.10
2022-12-28T07:15:56.703Z,5.10
2022-12-28T07:17:18.740Z,5.10
2022-12-28T07:18:41.393Z,5.10
2022-12-28T07:20:03.600Z,5.10
2022-12-28T07:21:31.067Z,5.10
2022-12-28T07:22:54.613Z,5.10
2022-12-28T07:24:16.903Z,5.10
2022-12-28T07:25:38.956Z,5.10
2022-12-28T07:27:01.128Z,5.10
2022-12-28T07:28:23.381Z,5.10
2022-12-28T07:29:45.408Z,5.10
2022-12-28T07:31:13.084Z,5.10
2022-12-28T07:32:38.989Z,5.10
2022-12-28T07:34:01.346Z,5.10
2022-12-28T07:35:23.408Z,5.10
2022-12-28T07:36:45.525Z,5.10
2022-12-28T07:38:07.603Z,5.10
2022-12-28T07:39:29.703Z,5.10
2022-12-28T07:40:51.733Z,5.10
2022-12-28T07:42:13.887Z,5.10
2022-12-28T07:43:36.440Z,5.10
2022-12-28T07:44:58.512Z,5.10
2022-12-28T07:46:26.358Z,5.10
2022-12-28T07:47:48.425Z,5.10
2022-12-28T07:49:10.515Z,5.10
2022-12-28T07:50:37.575Z,5.10
2022-12-28T07:52:00.178Z,5.10
2022-12-28T07:53:22.436Z,5.10
2022-12-28T07:54:44.506Z,5.10
2022-12-28T07:56:07.360Z,5.10
2022-12-28T07:57:29.452Z,5.10
2022-12-28T07:58:59.932Z,5.10
2022-12-28T08:00:22.299Z,5.10
2022-12-28T08:01:44.442Z,5.10
2022-12-28T08:03:06.546Z,5.20
2022-12-28T08:04:28.727Z,5.20
2022-12-28T08:05:50.774Z,5.20
2022-12-28T08:07:12.766Z,5.20
2022-12-28T08:08:40.066Z,5.20
2022-12-28T08:10:02.095Z,5.10
2022-12-28T08:11:26.827Z,5.10
2022-12-28T08:12:48.829Z,5.10
2022-12-28T08:14:11.726Z,5.10
2022-12-28T08:15:33.824Z,5.10
2022-12-28T08:16:55.889Z,5.10
2022-12-28T08:18:17.926Z,5.10
2022-12-28T08:19:39.961Z,5.10
2022-12-28T08:21:08.716Z,5.10
2022-12-28T08:22:30.774Z,5.00
2022-12-28T08:23:53.002Z,5.10
2022-12-28T08:25:15.141Z,5.10
2022-12-28T08:26:39.649Z,5.10
2022-12-28T08:28:01.679Z,5.10
2022-12-28T08:29:23.769Z,5.10
2022-12-28T08:30:45.912Z,5.10
2022-12-28T08:32:08.021Z,5.10
2022-12-28T08:33:30.095Z,5.10
2022-12-28T08:34:52.135Z,5.10
2022-12-28T08:36:14.436Z,5.10
2022-12-28T08:37:36.494Z,5.10
2022-12-28T08:38:59.844Z,5.10
2022-12-28T08:40:27.492Z,5.10
2022-12-28T08:41:49.538Z,5.10
2022-12-28T08:43:11.657Z,5.10
2022-12-28T08:44:33.762Z,5.10
2022-12-28T08:46:05.339Z,5.10
2022-12-28T08:47:27.506Z,5.10
2022-12-28T08:48:50.750Z,5.10
2022-12-28T08:50:13.532Z,5.10
2022-12-28T08:51:41.217Z,5.10
2022-12-28T08:53:03.281Z,5.10
2022-12-28T08:54:25.324Z,5.20
2022-12-28T08:55:48.202Z,5.20
2022-12-28T08:57:10.513Z,5.20
2022-12-28T08:58:32.645Z,5.20
2022-12-28T08:59:54.694Z,5.20
2022-12-28T09:01:24.875Z,5.20
2022-12-28T09:02:47.152Z,5.30
2022-12-28T09:04:20.390Z,5.30
2022-12-28T09:05:42.529Z,5.40
2022-12-28T09:07:04.582Z,5.40
2022-12-28T09:08:26.612Z,5.40
2022-12-28T09:09:48.709Z,5.40
2022-12-28T09:11:12.539Z,5.40
2022-12-28T09:12:34.682Z,5.40
2022-12-28T09:13:56.880Z,5.40
2022-12-28T09:15:19.021Z,5.40
2022-12-28T09:16:41.117Z,5.40
2022-12-28T09:18:03.183Z,5.40
2022-12-28T09:19:25.246Z,5.40
2022-12-28T09:20:48.096Z,5.40
2022-12-28T09:22:10.328Z,5.40
2022-12-28T09:23:32.646Z,5.40
2022-12-28T09:24:54.670Z,5.50
2022-12-28T09:26:17.904Z,5.50
2022-12-28T09:27:39.962Z,5.40
2022-12-28T09:29:04.153Z,5.40
2022-12-28T09:30:26.194Z,5.40
2022-12-28T09:31:48.205Z,5.40
2022-12-28T09:33:28.766Z,5.40
2022-12-28T09:34:52.169Z,5.40
2022-12-28T09:36:14.269Z,5.50
2022-12-28T09:37:36.353Z,5.50
2022-12-28T09:39:00.229Z,5.50
2022-12-28T09:40:22.472Z,5.50
2022-12-28T09:42:06.503Z,5.50
2022-12-28T09:43:28.726Z,5.50
2022-12-28T09:44:57.384Z,5.50
2022-12-28T09:46:22.817Z,5.60
2022-12-28T09:47:51.715Z,5.60
2022-12-28T09:49:18.814Z,5.60
2022-12-28T09:50:41.358Z,5.60
2022-12-28T09:52:29.091Z,5.70
2022-12-28T09:53:51.134Z,5.70
2022-12-28T09:55:17.990Z,5.70
2022-12-28T09:56:42.768Z,5.70
2022-12-28T09:58:11.067Z,5.70
2022-12-28T09:59:35.138Z,5.80
2022-12-28T10:01:00.143Z,5.80
2022-12-28T10:02:33.713Z,5.80
2022-12-28T10:03:57.757Z,5.80
2022-12-28T10:05:21.460Z,5.80
2022-12-28T10:06:44.207Z,5.90
2022-12-28T10:08:06.458Z,5.90
2022-12-28T10:09:31.688Z,5.90
2022-12-28T10:10:59.445Z,5.90
2022-12-28T10:12:24.590Z,5.90
2022-12-28T10:13:56.155Z,5.90
2022-12-28T10:15:18.955Z,6.00
2022-12-28T10:16:46.958Z,6.00
2022-12-28T10:18:14.264Z,5.90
2022-12-28T10:19:36.329Z,6.00
2022-12-28T10:20:59.644Z,6.00
2022-12-28T10:22:24.148Z,6.00
2022-12-28T10:24:29.043Z,6.00
2022-12-28T10:25:32.727Z,6.00
2022-12-28T10:26:57.417Z,6.10
2022-12-28T10:28:22.387Z,6.00
2022-12-28T10:29:44.957Z,6.00
2022-12-28T10:31:12.164Z,6.00
2022-12-28T10:32:56.701Z,6.00
2022-12-28T10:34:24.489Z,6.10
2022-12-28T10:35:51.179Z,6.10
2022-12-28T10:37:18.351Z,6.10
2022-12-28T10:38:43.997Z,6.10
2022-12-28T10:40:20.861Z,6.10
2022-12-28T10:41:45.514Z,6.20
2022-12-28T10:43:21.601Z,6.20
2022-12-28T10:44:43.698Z,6.20
2022-12-28T10:46:15.467Z,6.20
2022-12-28T10:47:44.025Z,6.20
2022-12-28T10:49:15.657Z,6.20
2022-12-28T10:50:46.076Z,6.30
2022-12-28T10:52:20.517Z,6.30
2022-12-28T10:53:46.139Z,6.30
2022-12-28T10:55:28.265Z,6.30
2022-12-28T10:56:50.598Z,6.30
2022-12-28T10:58:33.133Z,6.30
2022-12-28T11:00:14.733Z,6.40
2022-12-28T11:01:37.291Z,6.40
2022-12-28T11:02:59.438Z,6.40
2022-12-28T11:04:24.270Z,6.40
2022-12-28T11:05:47.985Z,6.40
2022-12-28T11:07:38.041Z,6.40
2022-12-28T11:09:18.182Z,6.50
2022-12-28T11:10:40.546Z,6.50
2022-12-28T11:12:26.569Z,6.50
2022-12-28T11:14:23.389Z,6.50
2022-12-28T11:15:45.813Z,6.50
2022-12-28T11:17:29.468Z,6.50
2022-12-28T11:18:51.794Z,6.50
2022-12-28T11:20:19.655Z,6.40
2022-12-28T11:21:43.143Z,6.40
2022-12-28T11:23:06.670Z,6.40
2022-12-28T11:24:28.704Z,6.40
2022-12-28T11:25:51.239Z,6.40
2022-12-28T11:27:16.930Z,6.50
2022-12-28T11:28:41.770Z,6.50
2022-12-28T11:30:04.381Z,6.50
2022-12-28T11:31:30.331Z,6.50
2022-12-28T11:33:06.891Z,6.50
2022-12-28T11:34:31.062Z,6.50
2022-12-28T11:35:59.634Z,6.60
2022-12-28T11:37:22.158Z,6.60
2022-12-28T11:38:49.303Z,6.60
2022-12-28T11:40:43.489Z,6.60
2022-12-28T11:43:55.253Z,6.70
2022-12-28T11:45:53.325Z,6.70
2022-12-28T11:47:15.419Z,6.80
2022-12-28T11:48:43.512Z,6.90
2022-12-28T11:50:38.153Z,6.90
2022-12-28T11:52:34.271Z,7.00
2022-12-28T11:54:32.738Z,7.00
2022-12-28T11:56:07.423Z,7.00
2022-12-28T11:57:39.396Z,7.00
2022-12-28T11:59:04.936Z,7.00
2022-12-28T12:00:26.917Z,7.00
2022-12-28T12:01:54.472Z,6.90
2022-12-28T12:03:16.588Z,6.90
2022-12-28T12:04:41.285Z,7.00
2022-12-28T12:06:03.466Z,6.90
2022-12-28T12:07:31.661Z,7.00
2022-12-28T12:08:54.485Z,7.00
2022-12-28T12:10:34.343Z,7.10
2022-12-28T12:11:59.361Z,7.10
2022-12-28T12:13:27.570Z,7.10
2022-12-28T12:14:57.378Z,7.10
2022-12-28T12:16:53.321Z,7.10
2022-12-28T12:18:25.217Z,7.10
2022-12-28T12:19:57.352Z,7.10
2022-12-28T12:21:33.801Z,7.10
2022-12-28T12:23:07.473Z,7.10
2022-12-28T12:24:48.785Z,7.10
2022-12-28T12:26:20.907Z,7.10
2022-12-28T12:28:09.629Z,7.10
2022-12-28T12:29:39.008Z,7.20
2022-12-28T12:31:04.475Z,7.20
2022-12-28T12:32:45.090Z,7.20
2022-12-28T12:34:24.104Z,7.20
2022-12-28T12:36:16.662Z,7.30
2022-12-28T12:38:20.542Z,7.20
2022-12-28T12:39:45.341Z,7.20
2022-12-28T12:41:07.406Z,7.20
2022-12-28T12:42:37.257Z,7.20
2022-12-28T12:44:26.718Z,7.20
2022-12-28T12:45:54.682Z,7.20
2022-12-28T12:47:31.812Z,7.20
2022-12-28T12:49:37.963Z,7.20
2022-12-28T12:51:15.009Z,7.30
2022-12-28T12:52:55.217Z,7.20
2022-12-28T12:54:27.546Z,7.30
2022-12-28T12:56:25.611Z,7.30
2022-12-28T12:58:17.359Z,7.30
2022-12-28T12:59:45.485Z,7.30
2022-12-28T13:01:42.270Z,7.30
2022-12-28T13:03:34.179Z,7.40
2022-12-28T13:04:56.443Z,7.40
2022-12-28T13:06:26.849Z,7.40
2022-12-28T13:07:50.160Z,7.50
2022-12-28T13:09:19.046Z,7.50
2022-12-28T13:10:44.515Z,7.50
2022-12-28T13:12:15.626Z,7.50
2022-12-28T13:13:40.700Z,7.50
2022-12-28T13:15:10.676Z,7.50
2022-12-28T13:16:34.761Z,7.50
2022-12-28T13:18:43.510Z,7.50
2022-12-28T13:19:48.195Z,7.60
2022-12-28T13:21:20.313Z,7.60
2022-12-28T13:22:45.207Z,7.60
2022-12-28T13:24:45.770Z,7.60
2022-12-28T13:26:12.995Z,7.60
2022-12-28T13:27:38.101Z,7.60
2022-12-28T13:29:02.717Z,7.60
2022-12-28T13:30:25.544Z,7.60
2022-12-28T13:31:49.926Z,7.60
2022-12-28T13:33:21.162Z,7.60
2022-12-28T13:34:49.635Z,7.60
2022-12-28T13:36:18.203Z,7.60
2022-12-28T13:37:40.253Z,7.60
2022-12-28T13:39:04.849Z,7.60
2022-12-28T13:40:27.114Z,7.60
2022-12-28T13:41:56.396Z,7.60
2022-12-28T13:43:33.246Z,7.60
2022-12-28T13:44:59.805Z,7.60
2022-12-28T13:46:23.497Z,7.70
2022-12-28T13:47:49.269Z,7.70
2022-12-28T13:49:12.971Z,7.70
2022-12-28T13:50:38.255Z,7.70
2022-12-28T13:52:00.590Z,7.70
2022-12-28T13:53:28.729Z,7.70
2022-12-28T13:54:55.323Z,7.80
2022-12-28T13:56:19.648Z,7.80
2022-12-28T13:57:50.041Z,7.80
2022-12-28T13:59:18.612Z,7.80
2022-12-28T14:00:47.863Z,7.80
2022-12-28T14:02:19.001Z,7.90
2022-12-28T14:03:46.316Z,7.90
2022-12-28T14:05:15.262Z,7.90
2022-12-28T14:06:37.397Z,7.90
2022-12-28T14:07:59.860Z,7.90
2022-12-28T14:09:22.643Z,7.90
2022-12-28T14:10:46.777Z,7.90
2022-12-28T14:12:09.467Z,7.90
2022-12-28T14:13:33.043Z,7.90
2022-12-28T14:14:55.821Z,7.90
2022-12-28T14:16:19.074Z,7.90
2022-12-28T14:17:42.291Z,7.90
2022-12-28T14:19:05.807Z,7.90
2022-12-28T14:20:28.091Z,7.90
2022-12-28T14:21:51.387Z,7.90
2022-12-28T14:23:28.619Z,7.90
2022-12-28T14:25:13.235Z,7.90
2022-12-28T14:26:37.534Z,7.90
2022-12-28T14:28:06.118Z,7.90
2022-12-28T14:29:32.767Z,7.90
2022-12-28T14:30:55.874Z,7.90
2022-12-28T14:32:18.582Z,8.00
2022-12-28T14:33:52.530Z,8.00
2022-12-28T14:35:27.389Z,8.10
2022-12-28T14:36:52.418Z,8.10
2022-12-28T14:38:22.532Z,8.10
2022-12-28T14:39:45.634Z,8.00
2022-12-28T14:41:14.868Z,8.00
2022-12-28T14:42:37.036Z,8.00
2022-12-28T14:44:02.152Z,8.10
2022-12-28T14:46:07.120Z,8.10
2022-12-28T14:47:43.405Z,8.10
2022-12-28T14:49:28.216Z,8.10
2022-12-28T14:50:58.895Z,8.10
2022-12-28T14:52:21.045Z,8.10
2022-12-28T14:53:45.788Z,8.10
2022-12-28T14:55:21.979Z,8.10
2022-12-28T14:57:14.243Z,8.10
2022-12-28T14:58:52.137Z,8.10
2022-12-28T15:00:32.611Z,8.10
2022-12-28T15:01:55.890Z,8.10
2022-12-28T15:03:23.141Z,8.10
2022-12-28T15:04:46.123Z,8.10
2022-12-28T15:06:08.250Z,8.20
2022-12-28T15:07:33.495Z,8.20
2022-12-28T15:08:58.816Z,8.20
2022-12-28T15:10:20.841Z,8.20
2022-12-28T15:11:44.872Z,8.20
2022-12-28T15:13:07.001Z,8.20
2022-12-28T15:14:29.020Z,8.10
2022-12-28T15:15:56.208Z,8.20
2022-12-28T15:17:18.834Z,8.20
2022-12-28T15:18:44.934Z,8.30
2022-12-28T15:20:07.859Z,8.30
2022-12-28T15:21:30.408Z,8.30
2022-12-28T15:22:52.558Z,8.30
2022-12-28T15:24:16.786Z,8.30
2022-12-28T15:25:40.155Z,8.40
2022-12-28T15:27:05.591Z,8.40
2022-12-28T15:28:27.724Z,8.40
2022-12-28T15:30:05.407Z,8.40
2022-12-28T15:31:28.619Z,8.40
2022-12-28T15:32:50.812Z,8.40
2022-12-28T15:34:12.867Z,8.40
2022-12-28T15:35:35.054Z,8.40
2022-12-28T15:36:57.110Z,8.50
2022-12-28T15:38:19.209Z,8.50
2022-12-28T15:39:41.295Z,8.40
2022-12-28T15:41:03.430Z,8.50
2022-12-28T15:42:25.541Z,8.40
2022-12-28T15:43:49.284Z,8.40
2022-12-28T15:45:11.937Z,8.40
2022-12-28T15:46:34.084Z,8.40
2022-12-28T15:47:56.195Z,8.40
2022-12-28T15:49:18.598Z,8.40
2022-12-28T15:50:40.625Z,8.40
2022-12-28T15:52:02.664Z,8.40
2022-12-28T15:53:24.747Z,8.30
2022-12-28T15:54:47.502Z,8.30
2022-12-28T15:56:40.705Z,8.30
2022-12-28T15:58:02.794Z,8.30
2022-12-28T15:59:24.886Z,8.40
2022-12-28T16:00:47.837Z,8.40
2022-12-28T16:02:13.279Z,8.40
2022-12-28T16:03:35.617Z,8.40
2022-12-28T16:04:57.894Z,8.40
2022-12-28T16:06:21.040Z,8.40
2022-12-28T16:07:43.200Z,8.40
2022-12-28T16:09:05.598Z,8.40
2022-12-28T16:10:27.647Z,8.40
2022-12-28T16:11:54.897Z,8.40
2022-12-28T16:13:17.557Z,8.40
2022-12-28T16:14:39.780Z,8.40
2022-12-28T16:16:06.592Z,8.40
2022-12-28T16:17:28.672Z,8.40
2022-12-28T16:18:53.473Z,8.40
2022-12-28T16:20:15.835Z,8.40
2022-12-28T16:21:38.008Z,8.40
2022-12-28T16:23:00.143Z,8.40
2022-12-28T16:24:22.289Z,8.40
2022-12-28T16:25:50.445Z,8.40
2022-12-28T16:27:12.700Z,8.40
2022-12-28T16:28:35.246Z,8.40
2022-12-28T16:29:59.000Z,8.40
2022-12-28T16:31:35.949Z,8.40
2022-12-28T16:32:58.119Z,8.40
2022-12-28T16:34:20.141Z,8.40
2022-12-28T16:35:42.220Z,8.40
2022-12-28T16:37:04.299Z,8.50
2022-12-28T16:38:28.836Z,8.50
2022-12-28T16:39:51.049Z,8.50
2022-12-28T16:41:13.153Z,8.50
2022-12-28T16:42:35.247Z,8.50
2022-12-28T16:44:02.796Z,8.50
2022-12-28T16:45:24.897Z,8.50
2022-12-28T16:46:48.016Z,8.50
2022-12-28T16:48:12.904Z,8.50
2022-12-28T16:49:39.526Z,8.50
2022-12-28T16:51:02.102Z,8.50
2022-12-28T16:52:24.221Z,8.50
2022-12-28T16:53:46.407Z,8.50
2022-12-28T16:55:08.824Z,8.50
2022-12-28T16:56:31.017Z,8.50
2022-12-28T16:57:53.228Z,8.50
2022-12-28T16:59:17.177Z,8.50
2022-12-28T17:00:39.591Z,8.50
2022-12-28T17:02:02.065Z,8.50
2022-12-28T17:03:25.438Z,8.50
2022-12-28T17:04:47.914Z,8.50
2022-12-28T17:06:10.052Z,8.50
2022-12-28T17:07:32.203Z,8.50
2022-12-28T17:08:54.308Z,8.60
2022-12-28T17:10:17.697Z,8.60
2022-12-28T17:11:39.945Z,8.60
2022-12-28T17:13:02.315Z,8.60
2022-12-28T17:14:37.018Z,8.60
2022-12-28T17:16:00.788Z,8.60
2022-12-28T17:17:22.968Z,8.60
2022-12-28T17:18:45.114Z,8.60
2022-12-28T17:20:07.671Z,8.60
2022-12-28T17:21:32.005Z,8.60
2022-12-28T17:22:54.333Z,8.60
2022-12-28T17:24:16.521Z,8.60
2022-12-28T17:25:38.905Z,8.60
2022-12-28T17:27:07.202Z,8.60
2022-12-28T17:28:30.404Z,8.60
2022-12-28T17:29:52.688Z,8.60
2022-12-28T17:31:17.899Z,8.60
2022-12-28T17:32:39.994Z,8.60
2022-12-28T17:34:03.005Z,8.60
2022-12-28T17:35:25.177Z,8.60
2022-12-28T17:36:47.309Z,8.60
2022-12-28T17:38:09.828Z,8.60
2022-12-28T17:39:37.655Z,8.60
2022-12-28T17:41:21.562Z,8.60
2022-12-28T17:42:43.674Z,8.60
2022-12-28T17:44:06.115Z,8.60
2022-12-28T17:45:28.511Z,8.60
2022-12-28T17:46:50.654Z,8.60
2022-12-28T17:48:12.992Z,8.60
2022-12-28T17:49:35.111Z,8.70
2022-12-28T17:50:59.045Z,8.70
2022-12-28T17:52:22.342Z,8.70
2022-12-28T17:53:44.624Z,8.70
2022-12-28T17:55:07.202Z,8.70
2022-12-28T17:56:29.307Z,8.70
2022-12-28T17:57:51.411Z,8.70
2022-12-28T17:59:15.139Z,8.70
2022-12-28T18:00:37.243Z,8.70
2022-12-28T18:02:01.700Z,8.70
2022-12-28T18:03:30.002Z,8.70
2022-12-28T18:04:55.402Z,8.70
2022-12-28T18:06:17.626Z,8.70
2022-12-28T18:07:39.855Z,8.80
2022-12-28T18:09:01.959Z,8.80
2022-12-28T18:10:24.223Z,8.80
2022-12-28T18:11:48.985Z,8.80
2022-12-28T18:13:12.252Z,8.80
2022-12-28T18:14:34.803Z,8.80
2022-12-28T18:15:57.150Z,8.80
2022-12-28T18:17:23.216Z,8.80
2022-12-28T18:18:45.811Z,8.80
2022-12-28T18:21:22.080Z,8.80
2022-12-28T18:22:44.259Z,8.80
2022-12-28T18:24:06.966Z,8.80
2022-12-28T18:25:30.974Z,8.80
2022-12-28T18:26:53.032Z,8.80
2022-12-28T18:28:15.280Z,8.80
2022-12-28T18:29:37.434Z,8.70
2022-12-28T18:31:02.519Z,8.70
2022-12-28T18:32:24.752Z,8.70
2022-12-28T18:33:47.246Z,8.70
2022-12-28T18:35:11.784Z,8.70
2022-12-28T18:36:34.176Z,8.70
2022-12-28T18:37:56.609Z,8.70
2022-12-28T18:39:18.735Z,8.70
2022-12-28T18:40:40.930Z,8.70
2022-12-28T18:42:03.555Z,8.70
2022-12-28T18:43:26.078Z,8.70
2022-12-28T18:44:48.410Z,8.60
2022-12-28T18:46:11.067Z,8.70
2022-12-28T18:47:35.285Z,8.60
2022-12-28T18:48:57.457Z,8.60
2022-12-28T18:50:19.471Z,8.60
2022-12-28T18:51:41.504Z,8.60
2022-12-28T18:53:03.645Z,8.60
2022-12-28T18:54:25.696Z,8.60
2022-12-28T18:55:55.336Z,8.60
2022-12-28T18:57:17.389Z,8.60
2022-12-28T18:58:40.724Z,8.60
2022-12-28T19:00:03.331Z,8.60
2022-12-28T19:03:10.542Z,8.60
2022-12-28T19:04:32.880Z,8.60
2022-12-28T19:06:06.491Z,8.60
2022-12-28T19:07:28.682Z,8.60
2022-12-28T19:08:50.774Z,8.60
2022-12-28T19:10:13.836Z,8.60
2022-12-28T19:11:37.419Z,8.60
2022-12-28T19:12:59.619Z,8.60
2022-12-28T19:14:21.710Z,8.60
2022-12-28T19:15:43.851Z,8.60
2022-12-28T19:17:05.927Z,8.60
2022-12-28T19:18:28.034Z,8.50